sensor_id;sensor_type;location;lat;lon;timestamp;P1;durP1;ratioP1;P2;durP2;ratioP2
46719;SDS011;32452;51.382;-0.002;2022-12-18T00:01:23;62.17;;;24.70;;
46719;SDS011;32452;51.382;-0.002;2022-12-18T00:04:20;51.55;;;21.65;;
46719;SDS011;32452;51.382;-0.002;2022-12-18T00:07:08;49.72;;;20.63;;
46719;SDS011;32452;51.382;-0.002;2022-12-18T00:09:53;55.72;;;23.58;;
46719;SDS011;32452;51.382;-0.002;2022-12-18T00:12:39;59.97;;;24.38;;
46719;SDS011;32452;51.382;-0.002;2022-12-18T00:15:24;53.17;;;22.40;;
46719;SDS011;32452;51.382;-0.002;2022-12-18T00:18:10;49.67;;;22.60;;
46719;SDS011;32452;51.382;-0.002;2022-12-18T00:21:00;52.83;;;22.00;;
46719;SDS011;32452;51.382;-0.002;2022-12-18T00:23:47;57.00;;;24.75;;
46719;SDS011;32452;51.382;-0.002;2022-12-18T00:26:33;58.20;;;23.08;;
46719;SDS011;32452;51.382;-0.002;2022-12-18T00:29:20;43.45;;;18.10;;
46719;SDS011;32452;51.382;-0.002;2022-12-18T00:32:06;51.42;;;20.40;;
46719;SDS011;32452;51.382;-0.002;2022-12-18T00:34:51;47.17;;;21.05;;
46719;SDS011;32452;51.382;-0.002;2022-12-18T00:37:37;52.97;;;21.42;;
46719;SDS011;32452;51.382;-0.002;2022-12-18T00:40:22;46.85;;;20.60;;
46719;SDS011;32452;51.382;-0.002;2022-12-18T00:43:08;55.63;;;22.52;;
46719;SDS011;32452;51.382;-0.002;2022-12-18T00:45:54;53.53;;;22.42;;
46719;SDS011;32452;51.382;-0.002;2022-12-18T00:48:39;51.65;;;22.20;;
46719;SDS011;32452;51.382;-0.002;2022-12-18T00:51:24;47.70;;;22.23;;
46719;SDS011;32452;51.382;-0.002;2022-12-18T00:54:11;47.30;;;20.77;;
46719;SDS011;32452;51.382;-0.002;2022-12-18T00:56:57;48.65;;;21.75;;
46719;SDS011;32452;51.382;-0.002;2022-12-18T00:59:42;51.38;;;21.15;;
46719;SDS011;32452;51.382;-0.002;2022-12-18T01:02:27;54.13;;;21.63;;
46719;SDS011;32452;51.382;-0.002;2022-12-18T01:05:13;45.85;;;18.55;;
46719;SDS011;32452;51.382;-0.002;2022-12-18T01:07:59;49.85;;;20.58;;
46719;SDS011;32452;51.382;-0.002;2022-12-18T01:10:44;49.80;;;19.77;;
46719;SDS011;32452;51.382;-0.002;2022-12-18T01:13:30;51.65;;;20.60;;
46719;SDS011;32452;51.382;-0.002;2022-12-18T01:16:16;51.92;;;20.52;;
46719;SDS011;32452;51.382;-0.002;2022-12-18T01:19:02;46.47;;;18.73;;
46719;SDS011;32452;51.382;-0.002;2022-12-18T01:21:48;52.40;;;21.60;;
46719;SDS011;32452;51.382;-0.002;2022-12-18T01:24:33;50.17;;;21.05;;
46719;SDS011;32452;51.382;-0.002;2022-12-18T01:27:19;44.95;;;18.33;;
46719;SDS011;32452;51.382;-0.002;2022-12-18T01:30:04;46.35;;;20.27;;
46719;SDS011;32452;51.382;-0.002;2022-12-18T01:32:50;53.80;;;20.00;;
46719;SDS011;32452;51.382;-0.002;2022-12-18T01:35:40;44.30;;;17.45;;
46719;SDS011;32452;51.382;-0.002;2022-12-18T01:38:27;38.47;;;16.73;;
46719;SDS011;32452;51.382;-0.002;2022-12-18T01:41:17;40.63;;;16.65;;
46719;SDS011;32452;51.382;-0.002;2022-12-18T01:44:46;50.53;;;19.83;;
46719;SDS011;32452;51.382;-0.002;2022-12-18T01:47:49;44.35;;;17.45;;
46719;SDS011;32452;51.382;-0.002;2022-12-18T01:50:40;48.38;;;17.70;;
46719;SDS011;32452;51.382;-0.002;2022-12-18T01:53:28;46.88;;;19.00;;
46719;SDS011;32452;51.382;-0.002;2022-12-18T01:56:14;39.47;;;16.45;;
46719;SDS011;32452;51.382;-0.002;2022-12-18T01:59:03;37.15;;;14.82;;
46719;SDS011;32452;51.382;-0.002;2022-12-18T02:01:52;35.75;;;16.17;;
46719;SDS011;32452;51.382;-0.002;2022-12-18T02:04:38;39.65;;;16.33;;
46719;SDS011;32452;51.382;-0.002;2022-12-18T02:13:51;41.00;;;14.85;;
46719;SDS011;32452;51.382;-0.002;2022-12-18T02:20:19;38.40;;;15.00;;
46719;SDS011;32452;51.382;-0.002;2022-12-18T02:26:40;35.17;;;13.60;;
46719;SDS011;32452;51.382;-0.002;2022-12-18T02:29:38;37.72;;;14.45;;
46719;SDS011;32452;51.382;-0.002;2022-12-18T02:32:47;33.80;;;14.52;;
46719;SDS011;32452;51.382;-0.002;2022-12-18T02:35:36;35.88;;;16.52;;
46719;SDS011;32452;51.382;-0.002;2022-12-18T02:38:23;33.65;;;12.57;;
46719;SDS011;32452;51.382;-0.002;2022-12-18T02:41:10;31.80;;;14.18;;
46719;SDS011;32452;51.382;-0.002;2022-12-18T02:43:59;31.30;;;13.40;;
46719;SDS011;32452;51.382;-0.002;2022-12-18T02:46:48;35.55;;;13.52;;
46719;SDS011;32452;51.382;-0.002;2022-12-18T02:49:38;34.45;;;14.23;;
46719;SDS011;32452;51.382;-0.002;2022-12-18T02:52:50;32.15;;;12.73;;
46719;SDS011;32452;51.382;-0.002;2022-12-18T03:02:02;31.35;;;13.45;;
46719;SDS011;32452;51.382;-0.002;2022-12-18T03:05:11;29.95;;;11.68;;
46719;SDS011;32452;51.382;-0.002;2022-12-18T03:08:01;30.05;;;12.15;;
46719;SDS011;32452;51.382;-0.002;2022-12-18T03:11:01;32.65;;;13.68;;
46719;SDS011;32452;51.382;-0.002;2022-12-18T03:13:55;33.65;;;12.88;;
46719;SDS011;32452;51.382;-0.002;2022-12-18T03:16:43;33.63;;;13.50;;
46719;SDS011;32452;51.382;-0.002;2022-12-18T03:19:32;30.50;;;12.55;;
46719;SDS011;32452;51.382;-0.002;2022-12-18T03:22:19;30.88;;;13.30;;
46719;SDS011;32452;51.382;-0.002;2022-12-18T03:25:07;29.38;;;12.38;;
46719;SDS011;32452;51.382;-0.002;2022-12-18T03:27:58;30.35;;;12.40;;
46719;SDS011;32452;51.382;-0.002;2022-12-18T03:30:47;33.47;;;14.65;;
46719;SDS011;32452;51.382;-0.002;2022-12-18T03:33:38;38.10;;;15.40;;
46719;SDS011;32452;51.382;-0.002;2022-12-18T03:36:31;40.83;;;14.50;;
46719;SDS011;32452;51.382;-0.002;2022-12-18T03:39:17;34.00;;;13.68;;
46719;SDS011;32452;51.382;-0.002;2022-12-18T03:45:23;47.72;;;15.55;;
46719;SDS011;32452;51.382;-0.002;2022-12-18T03:51:24;31.65;;;12.70;;
46719;SDS011;32452;51.382;-0.002;2022-12-18T03:54:17;31.60;;;12.80;;
46719;SDS011;32452;51.382;-0.002;2022-12-18T03:57:09;36.05;;;14.77;;
46719;SDS011;32452;51.382;-0.002;2022-12-18T04:00:04;32.92;;;14.77;;
46719;SDS011;32452;51.382;-0.002;2022-12-18T04:02:55;38.08;;;15.57;;
46719;SDS011;32452;51.382;-0.002;2022-12-18T04:05:44;37.67;;;13.82;;
46719;SDS011;32452;51.382;-0.002;2022-12-18T04:08:32;37.20;;;14.63;;
46719;SDS011;32452;51.382;-0.002;2022-12-18T04:11:19;42.35;;;16.60;;
46719;SDS011;32452;51.382;-0.002;2022-12-18T04:14:05;32.97;;;16.27;;
46719;SDS011;32452;51.382;-0.002;2022-12-18T04:16:51;36.53;;;15.98;;
46719;SDS011;32452;51.382;-0.002;2022-12-18T04:19:37;36.72;;;15.35;;
46719;SDS011;32452;51.382;-0.002;2022-12-18T04:22:22;32.80;;;14.98;;
46719;SDS011;32452;51.382;-0.002;2022-12-18T04:25:08;41.50;;;16.60;;
46719;SDS011;32452;51.382;-0.002;2022-12-18T04:27:53;35.35;;;15.10;;
46719;SDS011;32452;51.382;-0.002;2022-12-18T04:30:39;42.63;;;15.38;;
46719;SDS011;32452;51.382;-0.002;2022-12-18T04:33:24;45.03;;;16.65;;
46719;SDS011;32452;51.382;-0.002;2022-12-18T04:36:10;42.22;;;15.93;;
46719;SDS011;32452;51.382;-0.002;2022-12-18T04:38:57;42.10;;;17.27;;
46719;SDS011;32452;51.382;-0.002;2022-12-18T04:41:42;37.20;;;15.50;;
46719;SDS011;32452;51.382;-0.002;2022-12-18T04:44:28;39.60;;;17.95;;
46719;SDS011;32452;51.382;-0.002;2022-12-18T04:47:14;42.92;;;16.90;;
46719;SDS011;32452;51.382;-0.002;2022-12-18T04:49:59;40.13;;;15.63;;
46719;SDS011;32452;51.382;-0.002;2022-12-18T04:52:45;44.58;;;16.00;;
46719;SDS011;32452;51.382;-0.002;2022-12-18T04:55:30;35.55;;;15.15;;
46719;SDS011;32452;51.382;-0.002;2022-12-18T04:58:16;43.97;;;18.65;;
46719;SDS011;32452;51.382;-0.002;2022-12-18T05:01:01;38.03;;;15.30;;
46719;SDS011;32452;51.382;-0.002;2022-12-18T05:03:47;41.10;;;17.67;;
46719;SDS011;32452;51.382;-0.002;2022-12-18T05:06:33;36.95;;;16.05;;
46719;SDS011;32452;51.382;-0.002;2022-12-18T05:09:18;37.83;;;17.13;;
46719;SDS011;32452;51.382;-0.002;2022-12-18T05:12:04;43.97;;;17.90;;
46719;SDS011;32452;51.382;-0.002;2022-12-18T05:14:49;40.22;;;16.77;;
46719;SDS011;32452;51.382;-0.002;2022-12-18T05:17:35;44.17;;;18.30;;
46719;SDS011;32452;51.382;-0.002;2022-12-18T05:20:20;37.90;;;17.90;;
46719;SDS011;32452;51.382;-0.002;2022-12-18T05:23:06;42.55;;;17.50;;
46719;SDS011;32452;51.382;-0.002;2022-12-18T05:28:41;44.33;;;20.60;;
46719;SDS011;32452;51.382;-0.002;2022-12-18T05:31:26;44.22;;;18.83;;
46719;SDS011;32452;51.382;-0.002;2022-12-18T05:34:12;40.58;;;17.95;;
46719;SDS011;32452;51.382;-0.002;2022-12-18T05:36:58;44.17;;;18.33;;
46719;SDS011;32452;51.382;-0.002;2022-12-18T05:39:43;53.58;;;20.45;;
46719;SDS011;32452;51.382;-0.002;2022-12-18T05:42:29;44.50;;;17.85;;
46719;SDS011;32452;51.382;-0.002;2022-12-18T05:45:15;43.85;;;19.58;;
46719;SDS011;32452;51.382;-0.002;2022-12-18T05:48:00;45.17;;;19.70;;
46719;SDS011;32452;51.382;-0.002;2022-12-18T05:50:47;47.67;;;19.40;;
46719;SDS011;32452;51.382;-0.002;2022-12-18T05:53:33;40.80;;;18.77;;
46719;SDS011;32452;51.382;-0.002;2022-12-18T05:56:21;43.45;;;20.58;;
46719;SDS011;32452;51.382;-0.002;2022-12-18T05:59:07;54.63;;;21.15;;
46719;SDS011;32452;51.382;-0.002;2022-12-18T06:01:53;47.55;;;19.95;;
46719;SDS011;32452;51.382;-0.002;2022-12-18T06:04:39;50.35;;;20.92;;
46719;SDS011;32452;51.382;-0.002;2022-12-18T06:07:24;50.38;;;21.50;;
46719;SDS011;32452;51.382;-0.002;2022-12-18T06:10:10;51.45;;;21.35;;
46719;SDS011;32452;51.382;-0.002;2022-12-18T06:12:56;44.63;;;18.75;;
46719;SDS011;32452;51.382;-0.002;2022-12-18T06:15:42;43.33;;;20.33;;
46719;SDS011;32452;51.382;-0.002;2022-12-18T06:18:27;41.78;;;16.73;;
46719;SDS011;32452;51.382;-0.002;2022-12-18T06:21:13;40.95;;;17.75;;
46719;SDS011;32452;51.382;-0.002;2022-12-18T06:23:59;39.70;;;17.90;;
46719;SDS011;32452;51.382;-0.002;2022-12-18T06:26:45;40.28;;;17.77;;
46719;SDS011;32452;51.382;-0.002;2022-12-18T06:29:30;36.70;;;16.73;;
46719;SDS011;32452;51.382;-0.002;2022-12-18T06:32:16;38.65;;;17.10;;
46719;SDS011;32452;51.382;-0.002;2022-12-18T06:35:01;42.63;;;17.13;;
46719;SDS011;32452;51.382;-0.002;2022-12-18T06:37:47;34.97;;;16.45;;
46719;SDS011;32452;51.382;-0.002;2022-12-18T06:40:33;37.70;;;16.38;;
46719;SDS011;32452;51.382;-0.002;2022-12-18T06:43:18;33.55;;;14.10;;
46719;SDS011;32452;51.382;-0.002;2022-12-18T06:46:04;38.58;;;18.30;;
46719;SDS011;32452;51.382;-0.002;2022-12-18T06:48:51;36.63;;;15.20;;
46719;SDS011;32452;51.382;-0.002;2022-12-18T06:51:36;37.20;;;17.00;;
46719;SDS011;32452;51.382;-0.002;2022-12-18T06:54:22;34.95;;;14.52;;
46719;SDS011;32452;51.382;-0.002;2022-12-18T06:57:08;37.97;;;16.20;;
46719;SDS011;32452;51.382;-0.002;2022-12-18T06:59:54;34.63;;;15.38;;
46719;SDS011;32452;51.382;-0.002;2022-12-18T07:02:42;33.50;;;16.13;;
46719;SDS011;32452;51.382;-0.002;2022-12-18T07:05:29;40.28;;;16.02;;
46719;SDS011;32452;51.382;-0.002;2022-12-18T07:08:14;30.98;;;14.65;;
46719;SDS011;32452;51.382;-0.002;2022-12-18T07:11:02;36.35;;;16.98;;
46719;SDS011;32452;51.382;-0.002;2022-12-18T07:13:48;39.20;;;15.88;;
46719;SDS011;32452;51.382;-0.002;2022-12-18T07:16:34;37.88;;;17.13;;
46719;SDS011;32452;51.382;-0.002;2022-12-18T07:19:19;39.15;;;16.58;;
46719;SDS011;32452;51.382;-0.002;2022-12-18T07:22:05;38.08;;;15.30;;
46719;SDS011;32452;51.382;-0.002;2022-12-18T07:24:50;28.85;;;13.07;;
46719;SDS011;32452;51.382;-0.002;2022-12-18T07:27:36;40.83;;;16.70;;
46719;SDS011;32452;51.382;-0.002;2022-12-18T07:30:21;33.50;;;14.98;;
46719;SDS011;32452;51.382;-0.002;2022-12-18T07:33:07;33.70;;;13.95;;
46719;SDS011;32452;51.382;-0.002;2022-12-18T07:35:53;38.40;;;15.48;;
46719;SDS011;32452;51.382;-0.002;2022-12-18T07:38:38;32.83;;;15.93;;
46719;SDS011;32452;51.382;-0.002;2022-12-18T07:41:25;38.80;;;17.10;;
46719;SDS011;32452;51.382;-0.002;2022-12-18T07:44:10;38.80;;;16.52;;
46719;SDS011;32452;51.382;-0.002;2022-12-18T07:46:56;38.40;;;16.42;;
46719;SDS011;32452;51.382;-0.002;2022-12-18T07:49:42;36.22;;;15.90;;
46719;SDS011;32452;51.382;-0.002;2022-12-18T07:52:27;38.22;;;15.98;;
46719;SDS011;32452;51.382;-0.002;2022-12-18T07:55:13;39.05;;;17.08;;
46719;SDS011;32452;51.382;-0.002;2022-12-18T07:58:00;35.15;;;14.93;;
46719;SDS011;32452;51.382;-0.002;2022-12-18T08:00:47;34.85;;;16.17;;
46719;SDS011;32452;51.382;-0.002;2022-12-18T08:03:32;41.15;;;18.00;;
46719;SDS011;32452;51.382;-0.002;2022-12-18T08:06:18;33.72;;;15.50;;
46719;SDS011;32452;51.382;-0.002;2022-12-18T08:09:09;36.85;;;16.83;;
46719;SDS011;32452;51.382;-0.002;2022-12-18T08:11:54;37.55;;;16.27;;
46719;SDS011;32452;51.382;-0.002;2022-12-18T08:14:40;37.22;;;16.83;;
46719;SDS011;32452;51.382;-0.002;2022-12-18T08:17:26;32.65;;;14.35;;
46719;SDS011;32452;51.382;-0.002;2022-12-18T08:20:11;38.13;;;17.08;;
46719;SDS011;32452;51.382;-0.002;2022-12-18T08:22:59;39.72;;;16.85;;
46719;SDS011;32452;51.382;-0.002;2022-12-18T08:25:45;33.25;;;15.75;;
46719;SDS011;32452;51.382;-0.002;2022-12-18T08:28:30;37.85;;;16.90;;
46719;SDS011;32452;51.382;-0.002;2022-12-18T08:31:16;42.10;;;18.27;;
46719;SDS011;32452;51.382;-0.002;2022-12-18T08:34:03;40.63;;;16.83;;
46719;SDS011;32452;51.382;-0.002;2022-12-18T08:36:49;47.28;;;19.17;;
46719;SDS011;32452;51.382;-0.002;2022-12-18T08:39:34;35.97;;;16.67;;
46719;SDS011;32452;51.382;-0.002;2022-12-18T08:42:19;40.63;;;18.10;;
46719;SDS011;32452;51.382;-0.002;2022-12-18T08:45:24;37.72;;;17.02;;
46719;SDS011;32452;51.382;-0.002;2022-12-18T08:48:09;32.40;;;15.35;;
46719;SDS011;32452;51.382;-0.002;2022-12-18T08:50:55;40.63;;;17.17;;
46719;SDS011;32452;51.382;-0.002;2022-12-18T08:53:42;38.35;;;17.17;;
46719;SDS011;32452;51.382;-0.002;2022-12-18T08:56:29;35.90;;;16.42;;
46719;SDS011;32452;51.382;-0.002;2022-12-18T08:59:15;36.53;;;17.48;;
46719;SDS011;32452;51.382;-0.002;2022-12-18T09:02:04;39.20;;;16.85;;
46719;SDS011;32452;51.382;-0.002;2022-12-18T09:04:51;35.60;;;16.80;;
46719;SDS011;32452;51.382;-0.002;2022-12-18T09:07:41;39.05;;;17.90;;
46719;SDS011;32452;51.382;-0.002;2022-12-18T09:10:28;37.80;;;18.42;;
46719;SDS011;32452;51.382;-0.002;2022-12-18T09:13:14;38.33;;;16.65;;
46719;SDS011;32452;51.382;-0.002;2022-12-18T09:16:02;36.25;;;17.20;;
46719;SDS011;32452;51.382;-0.002;2022-12-18T09:18:48;38.92;;;17.60;;
46719;SDS011;32452;51.382;-0.002;2022-12-18T09:21:34;35.70;;;19.17;;
46719;SDS011;32452;51.382;-0.002;2022-12-18T09:24:30;36.53;;;17.70;;
46719;SDS011;32452;51.382;-0.002;2022-12-18T09:27:16;35.53;;;16.13;;
46719;SDS011;32452;51.382;-0.002;2022-12-18T09:30:01;37.75;;;18.05;;
46719;SDS011;32452;51.382;-0.002;2022-12-18T09:32:47;36.30;;;17.30;;
46719;SDS011;32452;51.382;-0.002;2022-12-18T09:35:37;40.58;;;18.30;;
46719;SDS011;32452;51.382;-0.002;2022-12-18T09:38:39;36.25;;;17.17;;
46719;SDS011;32452;51.382;-0.002;2022-12-18T09:44:42;34.28;;;15.82;;
46719;SDS011;32452;51.382;-0.002;2022-12-18T09:47:33;32.90;;;15.10;;
46719;SDS011;32452;51.382;-0.002;2022-12-18T09:50:26;39.03;;;17.23;;
46719;SDS011;32452;51.382;-0.002;2022-12-18T09:53:20;30.38;;;14.13;;
46719;SDS011;32452;51.382;-0.002;2022-12-18T09:56:12;38.83;;;16.83;;
46719;SDS011;32452;51.382;-0.002;2022-12-18T09:59:04;34.80;;;16.45;;
46719;SDS011;32452;51.382;-0.002;2022-12-18T10:01:49;32.45;;;14.13;;
46719;SDS011;32452;51.382;-0.002;2022-12-18T10:04:36;33.55;;;15.23;;
46719;SDS011;32452;51.382;-0.002;2022-12-18T10:07:40;28.30;;;14.77;;
46719;SDS011;32452;51.382;-0.002;2022-12-18T10:10:39;29.73;;;14.55;;
46719;SDS011;32452;51.382;-0.002;2022-12-18T10:13:48;36.78;;;14.73;;
46719;SDS011;32452;51.382;-0.002;2022-12-18T10:20:34;30.02;;;14.18;;
46719;SDS011;32452;51.382;-0.002;2022-12-18T10:23:32;31.00;;;13.85;;
46719;SDS011;32452;51.382;-0.002;2022-12-18T10:26:31;26.65;;;12.20;;
46719;SDS011;32452;51.382;-0.002;2022-12-18T10:29:18;30.30;;;15.23;;
46719;SDS011;32452;51.382;-0.002;2022-12-18T10:32:06;32.30;;;14.98;;
46719;SDS011;32452;51.382;-0.002;2022-12-18T10:34:56;32.22;;;14.60;;
46719;SDS011;32452;51.382;-0.002;2022-12-18T10:41:01;33.10;;;15.60;;
46719;SDS011;32452;51.382;-0.002;2022-12-18T10:43:51;34.67;;;14.77;;
46719;SDS011;32452;51.382;-0.002;2022-12-18T10:47:02;31.33;;;14.65;;
46719;SDS011;32452;51.382;-0.002;2022-12-18T10:49:55;30.48;;;13.70;;
46719;SDS011;32452;51.382;-0.002;2022-12-18T10:52:41;29.88;;;15.05;;
46719;SDS011;32452;51.382;-0.002;2022-12-18T10:55:37;31.48;;;14.95;;
46719;SDS011;32452;51.382;-0.002;2022-12-18T10:58:28;33.95;;;14.60;;
46719;SDS011;32452;51.382;-0.002;2022-12-18T11:01:19;32.28;;;15.10;;
46719;SDS011;32452;51.382;-0.002;2022-12-18T11:04:08;33.75;;;17.05;;
46719;SDS011;32452;51.382;-0.002;2022-12-18T11:09:59;33.65;;;15.50;;
46719;SDS011;32452;51.382;-0.002;2022-12-18T11:12:46;33.60;;;17.35;;
46719;SDS011;32452;51.382;-0.002;2022-12-18T11:15:32;33.83;;;16.00;;
46719;SDS011;32452;51.382;-0.002;2022-12-18T11:18:29;35.17;;;16.90;;
46719;SDS011;32452;51.382;-0.002;2022-12-18T11:21:16;33.72;;;17.50;;
46719;SDS011;32452;51.382;-0.002;2022-12-18T11:24:02;32.60;;;16.65;;
46719;SDS011;32452;51.382;-0.002;2022-12-18T11:26:48;37.97;;;16.98;;
46719;SDS011;32452;51.382;-0.002;2022-12-18T11:29:41;37.55;;;17.67;;
46719;SDS011;32452;51.382;-0.002;2022-12-18T11:32:37;35.47;;;19.02;;
46719;SDS011;32452;51.382;-0.002;2022-12-18T11:36:01;33.42;;;17.92;;
46719;SDS011;32452;51.382;-0.002;2022-12-18T11:38:47;40.22;;;19.25;;
46719;SDS011;32452;51.382;-0.002;2022-12-18T11:41:41;36.80;;;18.70;;
46719;SDS011;32452;51.382;-0.002;2022-12-18T11:44:57;37.95;;;17.80;;
46719;SDS011;32452;51.382;-0.002;2022-12-18T11:50:57;38.25;;;19.52;;
46719;SDS011;32452;51.382;-0.002;2022-12-18T11:53:45;36.67;;;17.05;;
46719;SDS011;32452;51.382;-0.002;2022-12-18T11:56:39;32.80;;;16.17;;
46719;SDS011;32452;51.382;-0.002;2022-12-18T11:59:36;40.85;;;18.70;;
46719;SDS011;32452;51.382;-0.002;2022-12-18T12:02:53;33.50;;;16.42;;
46719;SDS011;32452;51.382;-0.002;2022-12-18T12:13:03;39.50;;;18.75;;
46719;SDS011;32452;51.382;-0.002;2022-12-18T12:21:41;34.80;;;17.33;;
46719;SDS011;32452;51.382;-0.002;2022-12-18T12:30:58;37.80;;;21.10;;
46719;SDS011;32452;51.382;-0.002;2022-12-18T12:33:56;36.78;;;19.00;;
46719;SDS011;32452;51.382;-0.002;2022-12-18T12:39:54;33.13;;;17.40;;
46719;SDS011;32452;51.382;-0.002;2022-12-18T12:42:42;35.92;;;19.23;;
46719;SDS011;32452;51.382;-0.002;2022-12-18T12:45:53;37.60;;;19.27;;
46719;SDS011;32452;51.382;-0.002;2022-12-18T12:48:49;40.72;;;19.55;;
46719;SDS011;32452;51.382;-0.002;2022-12-18T12:51:41;21.87;;;9.83;;
46719;SDS011;32452;51.382;-0.002;2022-12-18T12:54:33;37.25;;;17.95;;
46719;SDS011;32452;51.382;-0.002;2022-12-18T12:57:20;38.72;;;19.25;;
46719;SDS011;32452;51.382;-0.002;2022-12-18T13:06:04;33.80;;;16.80;;
46719;SDS011;32452;51.382;-0.002;2022-12-18T13:09:00;34.15;;;17.80;;
46719;SDS011;32452;51.382;-0.002;2022-12-18T13:11:48;34.13;;;16.75;;
46719;SDS011;32452;51.382;-0.002;2022-12-18T13:14:52;37.60;;;18.40;;
46719;SDS011;32452;51.382;-0.002;2022-12-18T13:17:38;37.58;;;17.88;;
46719;SDS011;32452;51.382;-0.002;2022-12-18T13:20:23;38.47;;;18.45;;
46719;SDS011;32452;51.382;-0.002;2022-12-18T13:23:26;30.05;;;15.15;;
46719;SDS011;32452;51.382;-0.002;2022-12-18T13:29:21;37.22;;;18.17;;
46719;SDS011;32452;51.382;-0.002;2022-12-18T13:32:28;36.40;;;18.08;;
46719;SDS011;32452;51.382;-0.002;2022-12-18T13:41:27;27.00;;;12.93;;
46719;SDS011;32452;51.382;-0.002;2022-12-18T13:44:35;27.33;;;13.57;;
46719;SDS011;32452;51.382;-0.002;2022-12-18T13:47:45;28.67;;;12.13;;
46719;SDS011;32452;51.382;-0.002;2022-12-18T13:50:31;30.90;;;15.40;;
46719;SDS011;32452;51.382;-0.002;2022-12-18T13:53:22;16.35;;;7.03;;
46719;SDS011;32452;51.382;-0.002;2022-12-18T13:56:20;26.85;;;13.63;;
46719;SDS011;32452;51.382;-0.002;2022-12-18T13:59:20;31.57;;;14.50;;
46719;SDS011;32452;51.382;-0.002;2022-12-18T14:02:14;24.50;;;11.45;;
46719;SDS011;32452;51.382;-0.002;2022-12-18T14:05:30;25.70;;;12.07;;
46719;SDS011;32452;51.382;-0.002;2022-12-18T14:08:18;30.10;;;13.95;;
46719;SDS011;32452;51.382;-0.002;2022-12-18T14:11:05;24.05;;;12.00;;
46719;SDS011;32452;51.382;-0.002;2022-12-18T14:13:55;23.27;;;11.63;;
46719;SDS011;32452;51.382;-0.002;2022-12-18T14:16:42;30.73;;;12.00;;
46719;SDS011;32452;51.382;-0.002;2022-12-18T14:19:29;20.75;;;11.50;;
46719;SDS011;32452;51.382;-0.002;2022-12-18T14:22:21;26.30;;;13.98;;
46719;SDS011;32452;51.382;-0.002;2022-12-18T14:25:19;26.95;;;13.38;;
46719;SDS011;32452;51.382;-0.002;2022-12-18T14:30:53;29.20;;;14.65;;
46719;SDS011;32452;51.382;-0.002;2022-12-18T14:33:40;25.58;;;12.50;;
46719;SDS011;32452;51.382;-0.002;2022-12-18T14:36:27;28.33;;;11.40;;
46719;SDS011;32452;51.382;-0.002;2022-12-18T14:39:16;27.20;;;13.63;;
46719;SDS011;32452;51.382;-0.002;2022-12-18T14:42:05;34.15;;;13.60;;
46719;SDS011;32452;51.382;-0.002;2022-12-18T14:48:35;26.77;;;13.52;;
46719;SDS011;32452;51.382;-0.002;2022-12-18T14:51:26;27.63;;;13.38;;
46719;SDS011;32452;51.382;-0.002;2022-12-18T14:54:15;25.65;;;12.30;;
46719;SDS011;32452;51.382;-0.002;2022-12-18T14:57:04;24.10;;;13.43;;
46719;SDS011;32452;51.382;-0.002;2022-12-18T15:00:05;27.58;;;12.68;;
46719;SDS011;32452;51.382;-0.002;2022-12-18T15:02:54;24.13;;;11.23;;
46719;SDS011;32452;51.382;-0.002;2022-12-18T15:05:41;27.50;;;13.88;;
46719;SDS011;32452;51.382;-0.002;2022-12-18T15:08:36;25.40;;;13.13;;
46719;SDS011;32452;51.382;-0.002;2022-12-18T15:11:26;21.55;;;11.43;;
46719;SDS011;32452;51.382;-0.002;2022-12-18T15:17:23;22.83;;;11.13;;
46719;SDS011;32452;51.382;-0.002;2022-12-18T15:20:11;25.42;;;11.93;;
46719;SDS011;32452;51.382;-0.002;2022-12-18T15:22:58;24.50;;;12.48;;
46719;SDS011;32452;51.382;-0.002;2022-12-18T15:25:43;28.02;;;12.45;;
46719;SDS011;32452;51.382;-0.002;2022-12-18T15:28:35;23.52;;;11.35;;
46719;SDS011;32452;51.382;-0.002;2022-12-18T15:31:34;25.17;;;11.88;;
46719;SDS011;32452;51.382;-0.002;2022-12-18T15:34:22;19.73;;;9.25;;
46719;SDS011;32452;51.382;-0.002;2022-12-18T15:37:08;19.77;;;9.82;;
46719;SDS011;32452;51.382;-0.002;2022-12-18T15:39:54;23.10;;;11.50;;
46719;SDS011;32452;51.382;-0.002;2022-12-18T15:42:39;21.80;;;11.18;;
46719;SDS011;32452;51.382;-0.002;2022-12-18T15:45:44;22.42;;;11.35;;
46719;SDS011;32452;51.382;-0.002;2022-12-18T15:48:29;17.35;;;8.63;;
46719;SDS011;32452;51.382;-0.002;2022-12-18T15:51:20;22.83;;;11.25;;
46719;SDS011;32452;51.382;-0.002;2022-12-18T15:54:16;24.55;;;11.98;;
46719;SDS011;32452;51.382;-0.002;2022-12-18T15:57:01;21.90;;;9.95;;
46719;SDS011;32452;51.382;-0.002;2022-12-18T16:00:05;14.25;;;7.57;;
46719;SDS011;32452;51.382;-0.002;2022-12-18T16:02:56;22.48;;;9.23;;
46719;SDS011;32452;51.382;-0.002;2022-12-18T16:05:41;16.33;;;7.40;;
46719;SDS011;32452;51.382;-0.002;2022-12-18T16:08:30;15.32;;;7.53;;
46719;SDS011;32452;51.382;-0.002;2022-12-18T16:11:26;18.88;;;9.25;;
46719;SDS011;32452;51.382;-0.002;2022-12-18T16:14:24;15.43;;;7.75;;
46719;SDS011;32452;51.382;-0.002;2022-12-18T16:17:13;20.08;;;8.88;;
46719;SDS011;32452;51.382;-0.002;2022-12-18T16:19:59;10.05;;;4.80;;
46719;SDS011;32452;51.382;-0.002;2022-12-18T16:22:45;11.10;;;5.60;;
46719;SDS011;32452;51.382;-0.002;2022-12-18T16:25:31;10.40;;;4.70;;
46719;SDS011;32452;51.382;-0.002;2022-12-18T16:28:17;10.88;;;5.75;;
46719;SDS011;32452;51.382;-0.002;2022-12-18T16:31:03;11.20;;;5.45;;
46719;SDS011;32452;51.382;-0.002;2022-12-18T16:33:48;14.60;;;6.47;;
46719;SDS011;32452;51.382;-0.002;2022-12-18T16:36:34;8.30;;;3.85;;
46719;SDS011;32452;51.382;-0.002;2022-12-18T16:39:19;7.50;;;3.78;;
46719;SDS011;32452;51.382;-0.002;2022-12-18T16:42:14;10.98;;;5.00;;
46719;SDS011;32452;51.382;-0.002;2022-12-18T16:45:03;10.75;;;4.90;;
46719;SDS011;32452;51.382;-0.002;2022-12-18T16:47:50;10.57;;;4.65;;
46719;SDS011;32452;51.382;-0.002;2022-12-18T16:50:35;7.93;;;3.55;;
46719;SDS011;32452;51.382;-0.002;2022-12-18T16:53:21;9.75;;;4.38;;
46719;SDS011;32452;51.382;-0.002;2022-12-18T16:56:07;11.05;;;4.70;;
46719;SDS011;32452;51.382;-0.002;2022-12-18T16:58:54;11.65;;;5.53;;
46719;SDS011;32452;51.382;-0.002;2022-12-18T17:01:40;7.82;;;4.05;;
46719;SDS011;32452;51.382;-0.002;2022-12-18T17:04:30;11.52;;;4.97;;
46719;SDS011;32452;51.382;-0.002;2022-12-18T17:07:15;12.15;;;5.88;;
46719;SDS011;32452;51.382;-0.002;2022-12-18T17:10:01;14.40;;;6.43;;
46719;SDS011;32452;51.382;-0.002;2022-12-18T17:12:46;12.10;;;5.97;;
46719;SDS011;32452;51.382;-0.002;2022-12-18T17:15:34;11.82;;;5.45;;
46719;SDS011;32452;51.382;-0.002;2022-12-18T17:18:20;13.20;;;6.55;;
46719;SDS011;32452;51.382;-0.002;2022-12-18T17:21:08;13.98;;;6.40;;
46719;SDS011;32452;51.382;-0.002;2022-12-18T17:23:54;12.88;;;6.18;;
46719;SDS011;32452;51.382;-0.002;2022-12-18T17:26:44;12.20;;;5.72;;
46719;SDS011;32452;51.382;-0.002;2022-12-18T17:29:31;10.77;;;6.07;;
46719;SDS011;32452;51.382;-0.002;2022-12-18T17:32:17;11.60;;;7.10;;
46719;SDS011;32452;51.382;-0.002;2022-12-18T17:35:03;10.00;;;4.93;;
46719;SDS011;32452;51.382;-0.002;2022-12-18T17:37:53;10.23;;;4.65;;
46719;SDS011;32452;51.382;-0.002;2022-12-18T17:40:39;9.35;;;4.88;;
46719;SDS011;32452;51.382;-0.002;2022-12-18T17:43:30;9.20;;;4.47;;
46719;SDS011;32452;51.382;-0.002;2022-12-18T17:46:16;9.25;;;4.40;;
46719;SDS011;32452;51.382;-0.002;2022-12-18T17:49:02;10.15;;;5.70;;
46719;SDS011;32452;51.382;-0.002;2022-12-18T17:51:48;12.32;;;5.85;;